createdAt,value
2019-06-07T00:01:25.520Z,57.90
2019-06-07T00:03:55.394Z,58.10
2019-06-07T00:06:26.012Z,58.30
2019-06-07T00:08:57.032Z,58.10
2019-06-07T00:11:26.761Z,58.30
2019-06-07T00:13:57.521Z,58.30
2019-06-07T00:16:27.340Z,58.70
2019-06-07T00:18:57.201Z,58.50
2019-06-07T00:22:12.879Z,58.90
2019-06-07T00:23:58.474Z,58.50
2019-06-07T00:26:28.352Z,58.50
2019-06-07T00:28:58.206Z,58.50
2019-06-07T00:31:28.078Z,58.30
2019-06-07T00:33:57.969Z,58.40
2019-06-07T00:36:27.763Z,58.30
2019-06-07T00:38:57.505Z,58.70
2019-06-07T00:41:27.353Z,58.30
2019-06-07T00:43:57.148Z,58.30
2019-06-07T00:46:26.941Z,58.20
2019-06-07T00:48:56.677Z,58.70
2019-06-07T00:51:26.515Z,59.30
2019-06-07T00:53:56.398Z,59.00
2019-06-07T00:56:26.348Z,58.90
2019-06-07T00:59:10.840Z,59.00
2019-06-07T01:01:27.734Z,59.20
2019-06-07T01:03:57.608Z,59.50
2019-06-07T01:06:27.507Z,59.60
2019-06-07T01:09:00.657Z,59.80
2019-06-07T01:11:32.082Z,59.90
2019-06-07T01:14:01.916Z,59.90
2019-06-07T01:16:55.497Z,59.60
2019-06-07T01:19:03.293Z,59.90
2019-06-07T01:21:33.077Z,60.00
2019-06-07T01:24:12.027Z,60.30
2019-06-07T01:26:34.481Z,60.30
2019-06-07T01:29:04.323Z,60.40
2019-06-07T01:31:34.037Z,60.50
2019-06-07T01:34:03.795Z,60.60
2019-06-07T01:36:33.641Z,60.70
2019-06-07T01:39:04.732Z,60.90
2019-06-07T01:41:34.774Z,61.10
2019-06-07T01:44:04.905Z,61.30
2019-06-07T01:46:34.682Z,61.70
2019-06-07T01:49:04.518Z,62.00
2019-06-07T01:51:35.500Z,62.50
2019-06-07T01:56:36.832Z,62.70
2019-06-07T01:59:06.517Z,64.00
2019-06-07T02:01:37.510Z,63.30
2019-06-07T02:04:07.414Z,63.40
2019-06-07T02:06:37.301Z,63.50
2019-06-07T02:09:07.849Z,63.90
2019-06-07T02:11:37.700Z,64.00
2019-06-07T02:14:07.520Z,64.20
2019-06-07T02:16:38.296Z,64.30
2019-06-07T02:19:08.133Z,64.30
2019-06-07T02:21:37.982Z,64.30
2019-06-07T02:24:07.688Z,64.40
2019-06-07T02:26:37.392Z,64.30
2019-06-07T02:29:07.409Z,64.00
2019-06-07T02:31:39.824Z,64.10
2019-06-07T02:34:08.728Z,64.10
2019-06-07T02:36:41.578Z,64.10
2019-06-07T02:39:34.515Z,64.30
2019-06-07T02:42:00.707Z,63.50
2019-06-07T02:44:35.916Z,63.90
2019-06-07T02:47:02.081Z,64.10
2019-06-07T02:49:39.640Z,64.10
2019-06-07T02:52:03.314Z,63.90
2019-06-07T02:54:36.996Z,63.90
2019-06-07T02:57:05.398Z,64.50
2019-06-07T03:00:02.886Z,65.00
2019-06-07T03:02:07.085Z,65.30
2019-06-07T03:04:41.795Z,65.30
2019-06-07T03:07:09.934Z,65.40
2019-06-07T03:09:40.193Z,65.40
2019-06-07T03:12:11.632Z,65.50
2019-06-07T03:14:42.030Z,65.50
2019-06-07T03:17:24.101Z,65.70
2019-06-07T03:19:55.297Z,65.40
2019-06-07T03:22:25.149Z,65.40
2019-06-07T03:24:56.285Z,65.40
2019-06-07T03:27:43.196Z,65.50
2019-06-07T03:29:57.629Z,66.40
2019-06-07T03:32:34.538Z,65.70
2019-06-07T03:35:01.150Z,65.80
2019-06-07T03:37:38.535Z,65.90
2019-06-07T03:40:02.398Z,66.20
2019-06-07T03:42:34.787Z,66.00
2019-06-07T03:45:05.577Z,66.30
2019-06-07T03:47:41.213Z,66.00
2019-06-07T03:50:07.792Z,66.00
2019-06-07T03:52:40.953Z,66.10
2019-06-07T03:55:09.206Z,66.00
2019-06-07T03:58:29.143Z,66.10
2019-06-07T04:00:10.931Z,66.10
2019-06-07T04:02:41.856Z,66.10
2019-06-07T04:05:12.303Z,66.00
2019-06-07T04:07:44.496Z,66.40
2019-06-07T04:10:14.145Z,66.20
2019-06-07T04:12:44.429Z,66.80
2019-06-07T04:15:14.694Z,66.10
2019-06-07T04:18:00.804Z,66.10
2019-06-07T04:20:16.039Z,66.10
2019-06-07T04:22:45.769Z,66.10
2019-06-07T04:25:15.654Z,66.20
2019-06-07T04:27:46.192Z,66.30
2019-06-07T04:30:20.740Z,66.40
2019-06-07T04:32:50.561Z,66.20
2019-06-07T04:35:20.342Z,66.10
2019-06-07T04:37:50.177Z,65.80
2019-06-07T04:40:19.878Z,65.60
2019-06-07T04:42:50.531Z,65.30
2019-06-07T04:45:33.800Z,65.10
2019-06-07T04:47:53.991Z,64.70
2019-06-07T04:50:23.830Z,64.40
2019-06-07T04:52:53.532Z,64.10
2019-06-07T04:55:23.611Z,63.90
2019-06-07T04:57:53.375Z,63.80
2019-06-07T05:03:01.865Z,63.40
2019-06-07T05:05:31.935Z,63.60
2019-06-07T05:08:07.454Z,63.40
2019-06-07T05:10:35.089Z,63.10
2019-06-07T05:13:04.991Z,63.20
2019-06-07T05:15:37.175Z,63.40
2019-06-07T05:18:06.243Z,63.10
2019-06-07T05:20:37.858Z,62.80
2019-06-07T05:23:07.620Z,61.90
2019-06-07T05:25:44.444Z,61.50
2019-06-07T05:28:12.422Z,60.70
2019-06-07T05:33:14.107Z,59.50
2019-06-07T05:35:44.000Z,58.40
2019-06-07T05:38:13.844Z,57.50
2019-06-07T05:40:48.495Z,56.80
2019-06-07T05:43:24.402Z,56.40
2019-06-07T05:45:54.552Z,55.80
2019-06-07T05:48:24.392Z,55.20
2019-06-07T05:50:57.751Z,54.40
2019-06-07T05:53:25.629Z,53.90
2019-06-07T05:55:55.342Z,53.10
2019-06-07T05:58:25.108Z,53.00
2019-06-07T06:00:54.894Z,52.40
2019-06-07T06:03:24.656Z,51.90
2019-06-07T06:05:55.677Z,51.80
2019-06-07T06:08:26.893Z,51.40
2019-06-07T06:10:56.681Z,51.20
2019-06-07T06:13:27.425Z,50.60
2019-06-07T06:16:02.151Z,49.70
2019-06-07T06:18:28.769Z,49.10
2019-06-07T06:21:16.246Z,48.90
2019-06-07T06:23:29.926Z,48.20
2019-06-07T06:25:59.618Z,47.70
2019-06-07T06:28:29.322Z,47.10
2019-06-07T06:30:59.167Z,46.80
2019-06-07T06:33:34.487Z,46.10
2019-06-07T06:36:00.370Z,45.50
2019-06-07T06:38:31.446Z,45.10
2019-06-07T06:41:15.346Z,44.80
2019-06-07T06:43:33.916Z,44.30
2019-06-07T06:46:04.052Z,43.60
2019-06-07T06:48:33.828Z,43.50
2019-06-07T06:51:03.589Z,43.50
2019-06-07T06:53:33.376Z,42.60
2019-06-07T06:56:03.171Z,42.90
2019-06-07T06:59:18.446Z,42.10
2019-06-07T07:01:07.074Z,42.30
2019-06-07T07:06:25.285Z,42.00
2019-06-07T07:08:43.645Z,41.40
2019-06-07T07:11:13.525Z,41.10
2019-06-07T07:13:45.335Z,40.40
2019-06-07T07:16:14.825Z,40.30
2019-06-07T07:18:46.919Z,39.40
2019-06-07T07:21:16.139Z,39.40
2019-06-07T07:24:08.212Z,39.20
2019-06-07T07:26:17.516Z,38.90
2019-06-07T07:28:52.781Z,39.10
2019-06-07T07:31:18.721Z,38.00
2019-06-07T07:36:38.159Z,37.70
2019-06-07T07:39:00.646Z,37.80
2019-06-07T07:41:23.050Z,37.90
2019-06-07T07:44:04.290Z,37.20
2019-06-07T07:46:29.486Z,36.90
2019-06-07T07:48:56.215Z,36.40
2019-06-07T07:51:26.289Z,36.20
2019-06-07T07:54:08.667Z,36.00
2019-06-07T07:56:27.613Z,35.80
2019-06-07T07:59:02.070Z,35.70
2019-06-07T08:01:28.927Z,36.10
2019-06-07T08:03:58.815Z,35.70
2019-06-07T08:06:28.630Z,35.40
2019-06-07T08:08:59.121Z,34.60
2019-06-07T08:11:30.252Z,34.90
2019-06-07T08:13:59.952Z,34.90
2019-06-07T08:16:29.795Z,34.80
2019-06-07T08:19:04.060Z,35.30
2019-06-07T08:21:31.037Z,34.50
2019-06-07T08:24:04.940Z,34.30
2019-06-07T08:26:33.317Z,34.80
2019-06-07T08:29:03.380Z,34.20
2019-06-07T08:31:33.449Z,33.60
2019-06-07T08:34:03.270Z,34.00
2019-06-07T08:36:41.803Z,34.40
2019-06-07T08:39:07.843Z,34.70
2019-06-07T08:41:53.449Z,34.50
2019-06-07T08:44:22.855Z,34.30
2019-06-07T08:46:41.062Z,33.80
2019-06-07T08:49:10.858Z,33.50
2019-06-07T08:51:40.648Z,33.20
2019-06-07T08:54:22.363Z,33.20
2019-06-07T08:56:43.584Z,33.20
2019-06-07T08:59:13.545Z,33.80
2019-06-07T09:01:43.936Z,33.80
2019-06-07T09:04:13.757Z,34.70
2019-06-07T09:09:15.968Z,34.70
2019-06-07T09:11:45.694Z,34.00
2019-06-07T09:14:15.503Z,33.80
2019-06-07T09:16:45.368Z,33.30
2019-06-07T09:19:15.124Z,33.40
2019-06-07T09:21:44.899Z,33.20
2019-06-07T09:24:14.682Z,33.30
2019-06-07T09:26:44.524Z,33.30
2019-06-07T09:29:14.670Z,33.80
2019-06-07T09:31:52.723Z,33.10
2019-06-07T09:34:16.005Z,33.50
2019-06-07T09:36:45.938Z,33.60
2019-06-07T09:39:15.790Z,33.10
2019-06-07T09:41:49.942Z,34.00
2019-06-07T09:44:25.055Z,33.90
2019-06-07T09:47:07.923Z,33.70
2019-06-07T09:49:31.401Z,33.50
2019-06-07T09:51:51.721Z,33.90
2019-06-07T09:56:52.908Z,32.90
2019-06-07T09:59:22.662Z,32.50
2019-06-07T10:01:52.369Z,33.00
2019-06-07T10:04:31.401Z,33.20
2019-06-07T10:06:53.616Z,32.50
2019-06-07T10:10:09.426Z,32.40
2019-06-07T10:11:55.108Z,31.50
2019-06-07T10:14:24.869Z,32.00
2019-06-07T10:16:54.597Z,32.80
2019-06-07T10:19:24.481Z,32.70
2019-06-07T10:21:54.330Z,32.90
2019-06-07T10:24:24.150Z,32.20
2019-06-07T10:26:53.847Z,31.70
2019-06-07T10:29:23.542Z,31.90
2019-06-07T10:31:53.579Z,32.10
2019-06-07T10:34:23.521Z,32.30
2019-06-07T10:36:53.333Z,32.40
2019-06-07T10:39:23.144Z,32.30
2019-06-07T10:41:54.161Z,32.20
2019-06-07T10:44:23.995Z,32.60
2019-06-07T10:46:53.693Z,32.70
2019-06-07T10:49:23.393Z,33.30
2019-06-07T10:51:53.253Z,34.00
2019-06-07T10:54:29.603Z,34.50
2019-06-07T10:56:54.614Z,34.80
2019-06-07T10:59:24.420Z,35.50
2019-06-07T11:01:54.196Z,35.60
2019-06-07T11:04:24.041Z,35.80
2019-06-07T11:06:53.728Z,36.60
2019-06-07T11:09:24.557Z,36.40
2019-06-07T11:11:54.254Z,36.50
2019-06-07T11:14:24.038Z,37.20
2019-06-07T11:16:53.752Z,37.60
2019-06-07T11:19:23.594Z,37.80
2019-06-07T11:21:53.350Z,38.50
2019-06-07T11:24:24.723Z,38.90
2019-06-07T11:26:55.670Z,38.90
2019-06-07T11:29:25.462Z,39.20
2019-06-07T11:31:55.153Z,40.20
2019-06-07T11:34:24.932Z,40.20
2019-06-07T11:36:54.707Z,40.60
2019-06-07T11:39:24.482Z,40.90
2019-06-07T11:41:54.168Z,41.10
2019-06-07T11:44:23.944Z,41.40
2019-06-07T11:46:53.756Z,41.40
2019-06-07T11:49:23.547Z,41.70
2019-06-07T11:51:53.253Z,42.00
2019-06-07T11:54:22.974Z,42.10
2019-06-07T11:56:52.735Z,42.70
2019-06-07T11:59:23.130Z,42.10
2019-06-07T12:01:53.021Z,42.00
2019-06-07T12:04:34.555Z,42.00
2019-06-07T12:06:55.188Z,42.10
2019-06-07T12:09:27.973Z,42.80
2019-06-07T12:11:56.431Z,42.80
2019-06-07T12:14:26.206Z,42.60
2019-06-07T12:16:55.904Z,42.30
2019-06-07T12:19:25.687Z,42.60
2019-06-07T12:21:55.380Z,43.90
2019-06-07T12:24:25.093Z,42.90
2019-06-07T12:26:54.884Z,42.80
2019-06-07T12:29:24.614Z,41.80
2019-06-07T12:31:54.368Z,42.80
2019-06-07T12:34:24.149Z,42.90
2019-06-07T12:36:53.912Z,42.80
2019-06-07T12:39:23.624Z,42.80
2019-06-07T12:41:53.393Z,43.40
2019-06-07T12:44:23.168Z,43.10
2019-06-07T12:46:52.929Z,43.30
2019-06-07T12:49:23.561Z,44.20
2019-06-07T12:51:54.580Z,43.10
2019-06-07T12:54:24.358Z,43.40
2019-06-07T12:56:54.101Z,42.90
2019-06-07T12:59:24.301Z,42.60
2019-06-07T13:01:54.290Z,42.20
2019-06-07T13:04:24.977Z,42.40
2019-06-07T13:06:54.997Z,42.40
2019-06-07T13:09:24.826Z,42.20
2019-06-07T13:11:54.599Z,42.80
2019-06-07T13:14:24.362Z,42.50
2019-06-07T13:16:54.077Z,42.60
2019-06-07T13:19:24.319Z,42.90
2019-06-07T13:21:55.361Z,42.90
2019-06-07T13:24:25.360Z,42.60
2019-06-07T13:26:55.162Z,42.20
2019-06-07T13:29:29.303Z,42.50
2019-06-07T13:31:56.394Z,43.20
2019-06-07T13:34:26.218Z,43.30
2019-06-07T13:36:55.922Z,43.60
2019-06-07T13:39:27.820Z,43.30
2019-06-07T13:41:57.024Z,43.60
2019-06-07T13:44:26.759Z,43.00
2019-06-07T13:46:56.539Z,42.90
2019-06-07T13:49:27.707Z,43.20
2019-06-07T13:51:57.687Z,42.40
2019-06-07T13:54:27.806Z,42.50
2019-06-07T13:57:02.642Z,42.50
2019-06-07T13:59:29.232Z,42.10
2019-06-07T14:01:59.112Z,42.00
2019-06-07T14:04:29.170Z,42.30
2019-06-07T14:06:59.204Z,42.10
2019-06-07T14:09:29.784Z,42.10
2019-06-07T14:11:59.814Z,42.00
2019-06-07T14:14:30.929Z,41.40
2019-06-07T14:17:00.909Z,42.00
2019-06-07T14:19:30.891Z,42.00
2019-06-07T14:22:01.052Z,41.80
2019-06-07T14:24:31.188Z,41.90
2019-06-07T14:27:07.350Z,42.10
2019-06-07T14:29:38.185Z,41.30
2019-06-07T14:32:09.191Z,41.20
2019-06-07T14:34:38.946Z,41.40
2019-06-07T14:37:20.651Z,41.70
2019-06-07T14:39:50.336Z,41.40
2019-06-07T14:42:20.191Z,41.70
2019-06-07T14:44:49.874Z,41.80
2019-06-07T14:47:19.591Z,41.70
2019-06-07T14:49:49.347Z,41.60
2019-06-07T14:52:19.129Z,42.10
2019-06-07T14:54:48.830Z,42.00
2019-06-07T14:57:18.690Z,41.50
2019-06-07T14:59:48.381Z,41.70
2019-06-07T15:02:18.180Z,42.00
2019-06-07T15:04:49.221Z,41.90
2019-06-07T15:07:18.949Z,42.10
2019-06-07T15:09:48.646Z,42.20
2019-06-07T15:12:25.120Z,42.10
2019-06-07T15:14:49.760Z,41.70
2019-06-07T15:17:19.541Z,41.40
2019-06-07T15:19:49.333Z,41.50
2019-06-07T15:22:19.039Z,41.60
2019-06-07T15:24:48.813Z,40.70
2019-06-07T15:27:18.687Z,41.00
2019-06-07T15:29:48.469Z,41.00
2019-06-07T15:32:18.157Z,40.80
2019-06-07T15:34:47.855Z,40.70
2019-06-07T15:37:17.543Z,40.60
2019-06-07T15:39:47.407Z,41.30
2019-06-07T15:42:17.245Z,40.40
2019-06-07T15:44:46.950Z,39.70
2019-06-07T15:47:16.781Z,40.00
2019-06-07T15:49:46.594Z,38.30
2019-06-07T15:52:16.335Z,37.80
2019-06-07T15:54:46.134Z,37.90
2019-06-07T15:57:17.670Z,36.90
2019-06-07T15:59:49.205Z,36.90
2019-06-07T16:02:18.969Z,37.00
2019-06-07T16:04:48.681Z,36.60
2019-06-07T16:07:18.453Z,36.10
2019-06-07T16:09:48.246Z,36.40
2019-06-07T16:12:17.939Z,36.30
2019-06-07T16:14:47.655Z,36.20
2019-06-07T16:17:17.432Z,37.00
2019-06-07T16:19:47.220Z,36.50
2019-06-07T16:22:17.058Z,36.20
2019-06-07T16:24:46.838Z,36.00
2019-06-07T16:27:16.676Z,36.10
2019-06-07T16:29:46.437Z,36.30
2019-06-07T16:32:16.308Z,36.50
2019-06-07T16:34:46.194Z,36.30
2019-06-07T16:37:17.057Z,36.20
2019-06-07T16:39:46.855Z,36.10
2019-06-07T16:42:16.610Z,36.50
2019-06-07T16:44:46.381Z,36.60
2019-06-07T16:47:16.161Z,36.50
2019-06-07T16:49:45.931Z,37.50
2019-06-07T16:52:15.642Z,39.20
2019-06-07T16:54:45.863Z,40.40
2019-06-07T16:57:15.811Z,40.40
2019-06-07T16:59:49.023Z,40.20
2019-06-07T17:02:18.107Z,41.30
2019-06-07T17:04:47.979Z,43.30
2019-06-07T17:07:17.810Z,44.70
2019-06-07T17:09:49.286Z,45.90
2019-06-07T17:12:19.263Z,47.10
2019-06-07T17:14:49.077Z,46.30
2019-06-07T17:17:18.967Z,47.50
2019-06-07T17:19:49.261Z,48.60
2019-06-07T17:22:19.144Z,49.50
2019-06-07T17:24:49.907Z,50.00
2019-06-07T17:27:19.884Z,50.10
2019-06-07T17:29:50.165Z,50.70
2019-06-07T17:32:20.177Z,51.10
2019-06-07T17:34:50.354Z,51.90
2019-06-07T17:37:20.308Z,52.40
2019-06-07T17:39:50.918Z,52.70
2019-06-07T17:42:20.831Z,52.50
2019-06-07T17:44:51.524Z,53.00
2019-06-07T17:47:21.518Z,53.00
2019-06-07T17:49:52.209Z,53.20
2019-06-07T17:52:23.247Z,53.30
2019-06-07T17:54:53.118Z,53.30
2019-06-07T17:57:23.772Z,53.60
2019-06-07T17:59:53.726Z,53.60
2019-06-07T18:02:23.749Z,53.70
2019-06-07T18:04:53.890Z,53.80
2019-06-07T18:07:25.720Z,53.30
2019-06-07T18:09:56.835Z,53.20
2019-06-07T18:12:29.764Z,53.60
2019-06-07T18:14:59.482Z,53.20
2019-06-07T18:17:34.355Z,53.10
2019-06-07T18:20:00.681Z,52.80
2019-06-07T18:22:30.560Z,52.40
2019-06-07T18:25:00.364Z,52.50
2019-06-07T18:27:30.182Z,52.20
2019-06-07T18:29:59.888Z,51.50
2019-06-07T18:32:29.676Z,51.40
2019-06-07T18:35:00.461Z,50.60
2019-06-07T18:37:30.412Z,50.30
2019-06-07T18:40:00.417Z,50.30
2019-06-07T18:42:30.306Z,50.50
2019-06-07T18:45:00.109Z,50.50
2019-06-07T18:47:29.802Z,50.60
2019-06-07T18:49:59.521Z,50.90
2019-06-07T18:52:32.797Z,51.00
2019-06-07T18:55:02.520Z,51.20
2019-06-07T18:57:32.287Z,51.10
2019-06-07T19:00:02.096Z,51.10
2019-06-07T19:02:31.847Z,51.10
2019-06-07T19:05:01.625Z,50.80
2019-06-07T19:07:31.397Z,51.00
2019-06-07T19:10:01.257Z,50.70
2019-06-07T19:12:30.953Z,50.70
2019-06-07T19:15:00.672Z,50.80
2019-06-07T19:17:30.591Z,50.70
2019-06-07T19:20:00.652Z,51.10
2019-06-07T19:22:30.658Z,50.80
2019-06-07T19:25:00.652Z,51.00
2019-06-07T19:27:32.828Z,51.10
2019-06-07T19:30:02.149Z,51.20
2019-06-07T19:32:32.911Z,51.20
2019-06-07T19:35:04.144Z,51.20
2019-06-07T19:37:33.849Z,50.90
2019-06-07T19:40:04.324Z,50.90
2019-06-07T19:42:34.080Z,50.70
2019-06-07T19:45:27.707Z,50.50
2019-06-07T19:47:35.874Z,50.70
2019-06-07T19:50:06.028Z,50.60
2019-06-07T19:52:35.856Z,51.30
2019-06-07T19:55:09.393Z,50.60
2019-06-07T19:57:37.958Z,50.60
2019-06-07T20:00:14.139Z,50.70
2019-06-07T20:02:39.854Z,50.90
2019-06-07T20:05:14.291Z,50.70
2019-06-07T20:07:44.153Z,50.80
2019-06-07T20:10:15.459Z,50.90
2019-06-07T20:12:45.963Z,51.10
2019-06-07T20:15:28.569Z,51.30
2019-06-07T20:17:47.985Z,51.50
2019-06-07T20:20:18.040Z,51.60
2019-06-07T20:22:47.734Z,51.80
2019-06-07T20:25:18.676Z,51.90
2019-06-07T20:27:48.372Z,52.10
2019-06-07T20:30:19.429Z,52.20
2019-06-07T20:32:49.282Z,52.20
2019-06-07T20:35:19.153Z,52.30
2019-06-07T20:37:48.881Z,52.50
2019-06-07T20:40:24.234Z,52.60
2019-06-07T20:42:50.222Z,52.70
2019-06-07T20:45:32.587Z,52.70
2019-06-07T20:47:52.567Z,52.90
2019-06-07T20:50:24.454Z,52.80
2019-06-07T20:52:54.146Z,52.80
2019-06-07T20:55:24.000Z,52.90
2019-06-07T20:57:53.698Z,52.90
2019-06-07T21:00:23.751Z,53.30
2019-06-07T21:02:53.523Z,52.80
2019-06-07T21:05:23.265Z,52.70
2019-06-07T21:07:52.960Z,52.50
2019-06-07T21:10:22.896Z,52.40
2019-06-07T21:12:52.702Z,52.50
2019-06-07T21:15:22.437Z,52.40
2019-06-07T21:17:52.132Z,52.30
2019-06-07T21:20:21.845Z,52.10
2019-06-07T21:22:51.726Z,52.10
2019-06-07T21:25:21.592Z,52.10
2019-06-07T21:27:51.297Z,51.90
2019-06-07T21:30:22.141Z,51.70
2019-06-07T21:32:51.930Z,51.70
2019-06-07T21:35:21.772Z,51.70
2019-06-07T21:37:51.528Z,51.50
2019-06-07T21:40:21.295Z,51.40
2019-06-07T21:42:51.125Z,51.50
2019-06-07T21:45:21.011Z,51.50
2019-06-07T21:47:50.746Z,51.50
2019-06-07T21:50:20.586Z,51.40
2019-06-07T21:52:51.261Z,51.50
2019-06-07T21:55:21.093Z,51.40
2019-06-07T21:57:50.944Z,51.40
2019-06-07T22:00:26.333Z,51.40
2019-06-07T22:02:57.812Z,51.40
2019-06-07T22:05:27.582Z,51.50
2019-06-07T22:07:57.371Z,51.50
2019-06-07T22:10:27.217Z,51.40
2019-06-07T22:12:57.005Z,51.50
2019-06-07T22:15:34.067Z,51.50
2019-06-07T22:17:58.208Z,52.00
2019-06-07T22:20:27.905Z,51.30
2019-06-07T22:22:57.682Z,51.30
2019-06-07T22:25:27.434Z,51.40
2019-06-07T22:27:57.239Z,51.10
2019-06-07T22:30:26.933Z,51.00
2019-06-07T22:32:56.716Z,51.00
2019-06-07T22:35:26.553Z,51.00
2019-06-07T22:37:56.386Z,51.10
2019-06-07T22:40:26.246Z,51.00
2019-06-07T22:42:56.099Z,51.00
2019-06-07T22:45:25.856Z,51.10
2019-06-07T22:47:55.652Z,51.10
2019-06-07T22:50:25.512Z,51.20
2019-06-07T22:52:55.351Z,51.40
2019-06-07T22:55:25.180Z,51.10
2019-06-07T22:57:58.726Z,51.10
2019-06-07T23:00:29.867Z,51.00
2019-06-07T23:02:59.728Z,51.90
2019-06-07T23:05:29.441Z,51.10
2019-06-07T23:07:59.232Z,51.10
2019-06-07T23:10:29.097Z,51.30
2019-06-07T23:12:58.850Z,51.00
2019-06-07T23:15:29.787Z,51.10
2019-06-07T23:17:59.552Z,51.00
2019-06-07T23:20:29.339Z,51.10
2019-06-07T23:22:59.020Z,50.60
2019-06-07T23:25:28.797Z,51.30
2019-06-07T23:27:58.599Z,51.30
2019-06-07T23:30:28.477Z,51.40
2019-06-07T23:32:58.185Z,51.40
2019-06-07T23:35:29.105Z,51.60
2019-06-07T23:37:59.788Z,51.50
2019-06-07T23:40:30.815Z,51.60
2019-06-07T23:43:00.582Z,51.70
2019-06-07T23:45:30.385Z,51.70
2019-06-07T23:48:00.452Z,52.10
2019-06-07T23:50:30.257Z,51.90
2019-06-07T23:53:00.025Z,51.90
2019-06-07T23:55:29.909Z,51.90
2019-06-07T23:57:59.680Z,51.90
